createdAt,value
2023-11-07T00:00:07.284Z,7.60
2023-11-07T00:02:36.206Z,7.60
2023-11-07T00:05:05.256Z,7.50
2023-11-07T00:07:33.658Z,7.50
2023-11-07T00:10:02.091Z,7.50
2023-11-07T00:12:32.375Z,7.50
2023-11-07T00:15:00.959Z,7.50
2023-11-07T00:17:29.720Z,7.40
2023-11-07T00:19:58.751Z,7.40
2023-11-07T00:22:27.560Z,7.40
2023-11-07T00:24:56.120Z,7.40
2023-11-07T00:27:25.417Z,7.40
2023-11-07T00:29:55.163Z,7.40
2023-11-07T00:32:23.560Z,7.40
2023-11-07T00:34:52.153Z,7.30
2023-11-07T00:37:20.631Z,7.30
2023-11-07T00:39:49.315Z,7.30
2023-11-07T00:42:17.866Z,7.30
2023-11-07T00:44:46.651Z,7.30
2023-11-07T00:47:17.069Z,7.30
2023-11-07T00:49:46.394Z,7.30
2023-11-07T00:52:14.753Z,7.40
2023-11-07T00:54:43.094Z,7.40
2023-11-07T00:57:11.707Z,7.40
2023-11-07T00:59:40.113Z,7.50
2023-11-07T01:02:08.654Z,7.50
2023-11-07T01:04:38.603Z,7.60
2023-11-07T01:07:07.266Z,7.60
2023-11-07T01:09:35.752Z,7.70
2023-11-07T01:12:04.703Z,7.70
2023-11-07T01:14:33.869Z,7.70
2023-11-07T01:17:02.323Z,7.80
2023-11-07T01:19:30.935Z,7.80
2023-11-07T01:22:01.163Z,7.80
2023-11-07T01:24:29.651Z,7.80
2023-11-07T01:26:58.087Z,7.80
2023-11-07T01:29:26.440Z,7.80
2023-11-07T01:31:54.762Z,7.80
2023-11-07T01:34:23.171Z,7.80
2023-11-07T01:36:51.621Z,7.80
2023-11-07T01:39:21.507Z,7.80
2023-11-07T01:41:49.920Z,7.80
2023-11-07T01:44:18.436Z,7.80
2023-11-07T01:46:47.084Z,7.80
2023-11-07T01:49:15.707Z,7.80
2023-11-07T01:51:44.091Z,7.80
2023-11-07T01:54:12.665Z,7.80
2023-11-07T01:56:42.553Z,7.80
2023-11-07T01:59:11.044Z,7.80
2023-11-07T02:01:42.930Z,7.80
2023-11-07T02:04:11.678Z,7.70
2023-11-07T02:06:40.482Z,7.70
2023-11-07T02:09:09.613Z,7.60
2023-11-07T02:11:38.706Z,7.60
2023-11-07T02:14:08.822Z,7.60
2023-11-07T02:16:37.291Z,7.60
2023-11-07T02:19:05.762Z,7.50
2023-11-07T02:21:34.520Z,7.50
2023-11-07T02:24:04.720Z,7.50
2023-11-07T02:26:33.149Z,7.50
2023-11-07T02:29:01.567Z,7.50
2023-11-07T02:31:30.300Z,7.40
2023-11-07T02:33:58.940Z,7.40
2023-11-07T02:36:26.724Z,7.40
2023-11-07T02:38:55.260Z,7.30
2023-11-07T02:41:25.114Z,7.30
2023-11-07T02:43:53.443Z,7.30
2023-11-07T02:46:21.858Z,7.30
2023-11-07T02:48:50.783Z,7.20
2023-11-07T02:51:19.344Z,7.20
2023-11-07T02:53:48.249Z,7.20
2023-11-07T02:56:16.810Z,7.20
2023-11-07T02:58:46.614Z,7.20
2023-11-07T03:01:21.152Z,7.20
2023-11-07T03:03:50.823Z,7.20
2023-11-07T03:06:20.945Z,7.20
2023-11-07T03:08:49.485Z,7.10
2023-11-07T03:11:17.826Z,7.10
2023-11-07T03:13:47.967Z,7.10
2023-11-07T03:16:16.878Z,7.00
2023-11-07T03:18:45.384Z,7.00
2023-11-07T03:21:13.806Z,7.00
2023-11-07T03:23:42.378Z,7.00
2023-11-07T03:26:11.469Z,7.00
2023-11-07T03:28:39.959Z,7.00
2023-11-07T03:31:09.697Z,6.90
2023-11-07T03:33:38.155Z,6.90
2023-11-07T03:36:07.512Z,6.90
2023-11-07T03:38:36.108Z,6.90
2023-11-07T03:41:04.888Z,6.90
2023-11-07T03:43:34.939Z,6.90
2023-11-07T03:46:03.735Z,6.90
2023-11-07T03:48:33.632Z,6.80
2023-11-07T03:51:02.136Z,6.80
2023-11-07T03:53:30.559Z,6.80
2023-11-07T03:55:59.804Z,6.80
2023-11-07T03:58:28.193Z,6.80
2023-11-07T04:00:58.348Z,6.80
2023-11-07T04:03:27.421Z,6.80
2023-11-07T04:05:57.365Z,6.80
2023-11-07T04:08:25.880Z,6.70
2023-11-07T04:10:54.284Z,6.80
2023-11-07T04:13:22.572Z,6.80
2023-11-07T04:15:51.048Z,6.70
2023-11-07T04:18:20.270Z,6.70
2023-11-07T04:20:48.710Z,6.70
2023-11-07T04:23:18.564Z,6.70
2023-11-07T04:25:48.534Z,6.70
2023-11-07T04:28:18.032Z,6.70
2023-11-07T04:30:46.660Z,6.70
2023-11-07T04:33:15.250Z,6.60
2023-11-07T04:35:43.931Z,6.70
2023-11-07T04:38:12.434Z,6.70
2023-11-07T04:40:42.502Z,6.60
2023-11-07T04:43:11.009Z,6.60
2023-11-07T04:45:39.371Z,6.60
2023-11-07T04:48:08.587Z,6.60
2023-11-07T04:50:37.712Z,6.60
2023-11-07T04:53:06.327Z,6.50
2023-11-07T04:55:34.961Z,6.50
2023-11-07T04:58:04.699Z,6.50
2023-11-07T05:00:33.093Z,6.50
2023-11-07T05:03:01.563Z,6.50
2023-11-07T05:05:31.661Z,6.50
2023-11-07T05:08:00.719Z,6.50
2023-11-07T05:10:29.122Z,6.50
2023-11-07T05:12:57.591Z,6.40
2023-11-07T05:15:27.387Z,6.40
2023-11-07T05:17:56.266Z,6.40
2023-11-07T05:20:24.921Z,6.40
2023-11-07T05:22:53.270Z,6.40
2023-11-07T05:25:21.666Z,6.40
2023-11-07T05:27:50.123Z,6.30
2023-11-07T05:30:18.618Z,6.30
2023-11-07T05:32:49.904Z,6.30
2023-11-07T05:35:18.428Z,6.30
2023-11-07T05:37:47.704Z,6.30
2023-11-07T05:40:18.307Z,6.30
2023-11-07T05:42:46.879Z,6.30
2023-11-07T05:45:15.310Z,6.30
2023-11-07T05:47:44.246Z,6.20
2023-11-07T05:50:14.396Z,6.20
2023-11-07T05:52:42.996Z,6.20
2023-11-07T05:55:11.985Z,6.30
2023-11-07T05:57:40.584Z,6.20
2023-11-07T06:00:12.341Z,6.20
2023-11-07T06:02:40.099Z,6.20
2023-11-07T06:05:09.519Z,6.20
2023-11-07T06:07:39.713Z,6.20
2023-11-07T06:10:09.906Z,6.20
2023-11-07T06:12:38.556Z,6.20
2023-11-07T06:15:08.778Z,6.30
2023-11-07T06:17:37.475Z,6.30
2023-11-07T06:20:07.718Z,6.30
2023-11-07T06:22:36.256Z,6.30
2023-11-07T06:25:08.220Z,6.30
2023-11-07T06:27:36.703Z,6.30
2023-11-07T06:30:08.218Z,6.40
2023-11-07T06:32:37.134Z,6.40
2023-11-07T06:35:06.963Z,6.40
2023-11-07T06:37:35.627Z,6.50
2023-11-07T06:40:08.634Z,6.50
2023-11-07T06:42:37.053Z,6.50
2023-11-07T06:45:07.015Z,6.50
2023-11-07T06:47:35.660Z,6.50
2023-11-07T06:50:04.123Z,6.50
2023-11-07T06:52:32.918Z,6.50
2023-11-07T06:55:02.051Z,6.50
2023-11-07T06:57:31.910Z,6.60
2023-11-07T07:00:00.517Z,6.60
2023-11-07T07:02:29.001Z,6.70
2023-11-07T07:05:00.405Z,6.80
2023-11-07T07:07:29.368Z,6.90
2023-11-07T07:09:59.348Z,7.10
2023-11-07T07:12:28.832Z,7.20
2023-11-07T07:14:58.696Z,7.30
2023-11-07T07:17:28.816Z,7.40
2023-11-07T07:19:58.965Z,7.40
2023-11-07T07:22:29.892Z,7.50
2023-11-07T07:25:01.014Z,7.60
2023-11-07T07:27:29.581Z,7.70
2023-11-07T07:30:00.652Z,7.70
2023-11-07T07:32:29.152Z,7.80
2023-11-07T07:34:57.969Z,7.90
2023-11-07T07:37:26.369Z,7.80
2023-11-07T07:39:54.798Z,7.90
2023-11-07T07:42:25.017Z,8.10
2023-11-07T07:44:53.400Z,8.20
2023-11-07T07:47:23.249Z,8.30
2023-11-07T07:49:52.250Z,8.20
2023-11-07T07:52:24.147Z,8.40
2023-11-07T07:55:07.050Z,8.50
2023-11-07T07:57:43.081Z,8.60
2023-11-07T08:00:15.171Z,8.80
2023-11-07T08:02:46.843Z,8.90
2023-11-07T08:05:18.295Z,9.00
2023-11-07T08:07:46.936Z,9.20
2023-11-07T08:10:19.491Z,9.20
2023-11-07T08:12:48.568Z,9.30
2023-11-07T08:15:18.066Z,9.30
2023-11-07T08:17:49.713Z,9.40
2023-11-07T08:20:20.653Z,9.50
2023-11-07T08:22:50.155Z,9.60
2023-11-07T08:25:19.614Z,9.70
2023-11-07T08:27:50.104Z,9.70
2023-11-07T08:30:24.144Z,9.80
2023-11-07T08:32:54.854Z,10.00
2023-11-07T08:35:24.356Z,10.10
2023-11-07T08:37:52.804Z,10.20
2023-11-07T08:40:22.859Z,10.20
2023-11-07T08:42:52.796Z,10.20
2023-11-07T08:45:22.921Z,10.20
2023-11-07T08:47:54.075Z,10.30
2023-11-07T08:50:23.047Z,10.40
2023-11-07T08:52:52.253Z,10.40
2023-11-07T08:55:22.824Z,10.50
2023-11-07T08:57:51.605Z,10.50
2023-11-07T09:00:24.450Z,10.70
2023-11-07T09:02:55.159Z,10.90
2023-11-07T09:05:25.988Z,10.80
2023-11-07T09:07:55.637Z,10.90
2023-11-07T09:10:24.109Z,10.90
2023-11-07T09:12:52.615Z,10.80
2023-11-07T09:15:24.965Z,10.90
2023-11-07T09:17:55.549Z,10.90
2023-11-07T09:20:24.292Z,11.00
2023-11-07T09:22:54.265Z,11.10
2023-11-07T09:25:23.804Z,11.10
2023-11-07T09:27:53.389Z,11.30
2023-11-07T09:30:22.421Z,11.60
2023-11-07T09:32:52.522Z,11.20
2023-11-07T09:35:24.320Z,11.70
2023-11-07T09:37:53.148Z,11.60
2023-11-07T09:40:26.393Z,11.50
2023-11-07T09:42:56.218Z,11.60
2023-11-07T09:45:25.827Z,12.00
2023-11-07T09:47:57.520Z,11.80
2023-11-07T09:50:27.863Z,12.80
2023-11-07T09:52:56.699Z,11.70
2023-11-07T09:55:31.069Z,11.80
2023-11-07T09:58:12.999Z,11.80
2023-11-07T10:00:47.222Z,12.00
2023-11-07T10:03:17.381Z,12.20
2023-11-07T10:05:49.673Z,12.00
2023-11-07T10:08:18.686Z,12.10
2023-11-07T10:11:10.320Z,12.30
2023-11-07T10:13:39.291Z,12.10
2023-11-07T10:18:51.351Z,12.10
2023-11-07T10:21:33.217Z,12.10
2023-11-07T10:24:02.017Z,12.10
2023-11-07T10:26:31.677Z,12.30
2023-11-07T10:29:17.906Z,12.50
2023-11-07T10:32:01.653Z,12.50
2023-11-07T10:34:30.322Z,12.40
2023-11-07T10:37:01.272Z,12.10
2023-11-07T10:39:31.591Z,12.00
2023-11-07T10:42:19.240Z,11.90
2023-11-07T10:44:49.912Z,11.90
2023-11-07T10:47:21.324Z,11.90
2023-11-07T10:49:52.906Z,11.90
2023-11-07T10:52:22.923Z,12.00
2023-11-07T10:54:51.388Z,12.20
2023-11-07T10:57:24.028Z,12.10
2023-11-07T10:59:57.509Z,12.20
2023-11-07T11:02:29.585Z,12.20
2023-11-07T11:05:01.155Z,12.30
2023-11-07T11:07:33.403Z,12.30
2023-11-07T11:10:04.584Z,12.40
2023-11-07T11:12:36.283Z,12.30
2023-11-07T11:15:06.080Z,12.30
2023-11-07T11:17:41.573Z,12.30
2023-11-07T11:20:24.048Z,12.30
2023-11-07T11:23:01.527Z,12.30
2023-11-07T11:25:42.323Z,12.40
2023-11-07T11:28:10.812Z,12.40
2023-11-07T11:30:41.930Z,12.50
2023-11-07T11:33:12.728Z,12.50
2023-11-07T11:35:42.922Z,12.50
2023-11-07T11:38:14.998Z,12.50
2023-11-07T11:40:56.190Z,12.50
2023-11-07T11:43:27.016Z,12.60
2023-11-07T11:46:00.205Z,12.90
2023-11-07T11:49:06.638Z,12.80
2023-11-07T11:51:37.024Z,12.90
2023-11-07T11:54:08.552Z,12.90
2023-11-07T11:56:57.605Z,12.80
2023-11-07T11:59:27.279Z,12.70
2023-11-07T12:01:57.609Z,12.70
2023-11-07T12:04:34.847Z,12.70
2023-11-07T12:07:23.490Z,12.70
2023-11-07T12:09:57.438Z,12.70
2023-11-07T12:12:26.610Z,12.70
2023-11-07T12:14:56.117Z,12.70
2023-11-07T12:17:27.004Z,12.70
2023-11-07T12:20:04.522Z,12.70
2023-11-07T12:22:36.670Z,12.70
2023-11-07T12:25:10.939Z,12.80
2023-11-07T12:27:39.397Z,12.70
2023-11-07T12:30:18.850Z,12.70
2023-11-07T12:32:47.762Z,12.60
2023-11-07T12:35:20.492Z,12.60
2023-11-07T12:37:50.053Z,12.60
2023-11-07T12:40:20.831Z,12.60
2023-11-07T12:42:54.119Z,12.60
2023-11-07T12:45:29.949Z,12.70
2023-11-07T12:48:00.120Z,12.70
2023-11-07T12:50:34.477Z,12.70
2023-11-07T12:53:05.087Z,12.70
2023-11-07T12:55:36.998Z,12.70
2023-11-07T12:58:06.985Z,12.70
2023-11-07T13:00:56.605Z,12.70
2023-11-07T13:03:26.668Z,12.80
2023-11-07T13:05:59.639Z,12.90
2023-11-07T13:08:29.698Z,12.80
2023-11-07T13:11:17.042Z,12.90
2023-11-07T13:13:48.108Z,12.90
2023-11-07T13:16:17.796Z,12.90
2023-11-07T13:18:47.354Z,12.80
2023-11-07T13:21:16.310Z,12.70
2023-11-07T13:23:44.769Z,12.60
2023-11-07T13:26:15.638Z,12.50
2023-11-07T13:28:45.272Z,12.30
2023-11-07T13:31:15.448Z,12.30
2023-11-07T13:33:46.913Z,12.20
2023-11-07T13:36:17.113Z,12.30
2023-11-07T13:38:47.946Z,12.30
2023-11-07T13:41:18.302Z,12.30
2023-11-07T13:43:46.872Z,12.30
2023-11-07T13:46:19.324Z,12.30
2023-11-07T13:48:50.278Z,12.30
2023-11-07T13:51:19.096Z,12.30
2023-11-07T13:53:47.476Z,12.30
2023-11-07T13:56:17.317Z,12.30
2023-11-07T13:58:45.755Z,12.40
2023-11-07T14:01:14.990Z,12.40
2023-11-07T14:03:43.699Z,12.30
2023-11-07T14:06:12.651Z,12.30
2023-11-07T14:08:42.279Z,12.30
2023-11-07T14:11:11.441Z,12.30
2023-11-07T14:13:41.287Z,12.20
2023-11-07T14:16:09.875Z,12.20
2023-11-07T14:18:39.058Z,12.20
2023-11-07T14:21:07.686Z,12.20
2023-11-07T14:23:36.878Z,12.20
2023-11-07T14:26:07.854Z,12.20
2023-11-07T14:28:43.495Z,12.20
2023-11-07T14:31:19.979Z,12.10
2023-11-07T14:33:48.994Z,12.10
2023-11-07T14:36:17.943Z,12.10
2023-11-07T14:38:46.867Z,12.00
2023-11-07T14:41:15.705Z,12.00
2023-11-07T14:43:44.213Z,12.00
2023-11-07T14:46:12.616Z,11.90
2023-11-07T14:48:42.521Z,11.90
2023-11-07T14:51:11.162Z,11.90
2023-11-07T14:53:39.616Z,11.90
2023-11-07T14:56:09.172Z,11.80
2023-11-07T14:58:37.602Z,11.90
2023-11-07T15:01:07.650Z,11.90
2023-11-07T15:03:36.196Z,11.80
2023-11-07T15:06:06.434Z,11.80
2023-11-07T15:08:36.137Z,11.80
2023-11-07T15:11:04.551Z,11.70
2023-11-07T15:13:33.564Z,11.70
2023-11-07T15:16:03.184Z,11.70
2023-11-07T15:18:32.265Z,11.70
2023-11-07T15:21:00.822Z,11.60
2023-11-07T15:23:30.662Z,11.60
2023-11-07T15:25:59.146Z,11.60
2023-11-07T15:28:27.459Z,11.60
2023-11-07T15:30:55.929Z,11.60
2023-11-07T15:33:25.206Z,11.60
2023-11-07T15:35:53.752Z,11.60
2023-11-07T15:38:22.125Z,11.60
2023-11-07T15:40:51.916Z,11.50
2023-11-07T15:43:20.310Z,11.50
2023-11-07T15:45:48.819Z,11.50
2023-11-07T15:48:17.339Z,11.50
2023-11-07T15:50:45.901Z,11.40
2023-11-07T15:53:14.970Z,11.40
2023-11-07T15:55:43.626Z,11.40
2023-11-07T15:58:14.341Z,11.40
2023-11-07T16:00:44.293Z,11.40
2023-11-07T16:03:13.715Z,11.40
2023-11-07T16:05:43.767Z,11.40
2023-11-07T16:08:12.394Z,11.40
2023-11-07T16:10:40.737Z,11.30
2023-11-07T16:13:09.926Z,11.30
2023-11-07T16:15:40.103Z,11.30
2023-11-07T16:18:08.686Z,11.30
2023-11-07T16:20:37.423Z,11.30
2023-11-07T16:23:06.984Z,11.30
2023-11-07T16:25:35.601Z,11.20
2023-11-07T16:28:06.514Z,11.20
2023-11-07T16:30:35.820Z,11.20
2023-11-07T16:33:07.835Z,11.20
2023-11-07T16:35:36.399Z,11.20
2023-11-07T16:38:05.130Z,11.20
2023-11-07T16:40:33.657Z,11.20
2023-11-07T16:43:02.192Z,11.20
2023-11-07T16:45:30.933Z,11.20
2023-11-07T16:48:00.039Z,11.20
2023-11-07T16:50:30.723Z,11.10
2023-11-07T16:52:59.575Z,11.10
2023-11-07T16:55:28.482Z,11.10
2023-11-07T16:57:59.711Z,11.10
2023-11-07T17:00:29.233Z,11.10
2023-11-07T17:02:59.198Z,11.10
2023-11-07T17:05:31.845Z,11.10
2023-11-07T17:08:02.151Z,11.10
2023-11-07T17:10:32.611Z,11.10
2023-11-07T17:13:02.628Z,11.00
2023-11-07T17:15:32.259Z,11.00
2023-11-07T17:18:03.869Z,11.00
2023-11-07T17:20:36.099Z,11.00
2023-11-07T17:23:05.919Z,11.00
2023-11-07T17:25:35.530Z,11.00
2023-11-07T17:28:04.712Z,11.00
2023-11-07T17:30:33.348Z,11.00
2023-11-07T17:33:02.328Z,11.00
2023-11-07T17:35:34.429Z,11.00
2023-11-07T17:38:03.569Z,11.00
2023-11-07T17:40:33.982Z,11.00
2023-11-07T17:43:04.095Z,11.00
2023-11-07T17:45:34.051Z,11.00
2023-11-07T17:48:04.643Z,11.00
2023-11-07T17:50:38.009Z,11.00
2023-11-07T17:53:08.582Z,11.00
2023-11-07T17:55:39.431Z,11.00
2023-11-07T17:58:11.152Z,11.00
2023-11-07T18:00:39.588Z,11.00
2023-11-07T18:03:10.943Z,10.90
2023-11-07T18:05:44.712Z,10.90
2023-11-07T18:08:14.261Z,10.90
2023-11-07T18:10:46.299Z,10.90
2023-11-07T18:13:15.646Z,10.90
2023-11-07T18:15:47.834Z,10.90
2023-11-07T18:18:18.160Z,10.90
2023-11-07T18:20:58.253Z,10.90
2023-11-07T18:23:32.532Z,10.90
2023-11-07T18:26:03.862Z,10.90
2023-11-07T18:28:34.768Z,10.90
2023-11-07T18:31:05.916Z,10.90
2023-11-07T18:33:36.203Z,10.90
2023-11-07T18:36:10.652Z,10.90
2023-11-07T18:38:42.948Z,10.90
2023-11-07T18:41:15.309Z,10.90
2023-11-07T18:43:44.538Z,10.90
2023-11-07T18:46:16.481Z,10.90
2023-11-07T18:48:52.116Z,10.90
2023-11-07T18:51:28.275Z,10.90
2023-11-07T18:53:59.398Z,10.90
2023-11-07T18:56:31.369Z,10.90
2023-11-07T18:59:13.763Z,10.90
2023-11-07T19:01:53.563Z,10.90
2023-11-07T19:04:29.099Z,10.90
2023-11-07T19:07:22.316Z,10.90
2023-11-07T19:09:54.687Z,10.90
2023-11-07T19:12:28.354Z,10.80
2023-11-07T19:15:09.509Z,10.90
2023-11-07T19:17:40.876Z,10.90
2023-11-07T19:20:16.848Z,10.80
2023-11-07T19:22:53.668Z,10.80
2023-11-07T19:25:25.338Z,10.90
2023-11-07T19:27:56.865Z,10.90
2023-11-07T19:30:27.690Z,10.90
2023-11-07T19:32:59.992Z,10.80
2023-11-07T19:35:33.319Z,10.80
2023-11-07T19:38:11.651Z,10.80
2023-11-07T19:40:48.878Z,10.80
2023-11-07T19:43:34.624Z,10.80
2023-11-07T19:46:13.024Z,10.80
2023-11-07T19:48:53.730Z,11.20
2023-11-07T19:51:28.330Z,10.90
2023-11-07T19:54:02.182Z,10.90
2023-11-07T19:56:38.529Z,10.80
2023-11-07T19:59:11.672Z,10.80
2023-11-07T20:01:46.721Z,10.80
2023-11-07T20:04:16.915Z,10.80
2023-11-07T20:06:48.836Z,10.80
2023-11-07T20:09:24.304Z,10.80
2023-11-07T20:11:55.031Z,10.80
2023-11-07T20:14:28.114Z,10.80
2023-11-07T20:17:18.665Z,10.80
2023-11-07T20:19:49.710Z,10.80
2023-11-07T20:22:21.630Z,11.70
2023-11-07T20:24:55.651Z,10.80
2023-11-07T20:27:28.737Z,10.90
2023-11-07T20:29:59.594Z,10.80
2023-11-07T20:32:31.235Z,10.70
2023-11-07T20:35:02.418Z,10.80
2023-11-07T20:37:33.295Z,10.80
2023-11-07T20:40:05.523Z,10.90
2023-11-07T20:42:39.932Z,10.80
2023-11-07T20:45:15.296Z,10.80
2023-11-07T20:47:46.137Z,10.80
2023-11-07T20:50:18.136Z,10.80
2023-11-07T20:52:48.803Z,10.80
2023-11-07T20:55:20.611Z,10.80
2023-11-07T20:57:58.420Z,10.80
2023-11-07T21:00:32.521Z,10.90
2023-11-07T21:03:02.689Z,10.80
2023-11-07T21:05:37.961Z,10.90
2023-11-07T21:08:18.974Z,10.90
2023-11-07T21:10:51.257Z,11.80
2023-11-07T21:13:20.913Z,10.90
2023-11-07T21:15:49.745Z,10.90
2023-11-07T21:18:19.038Z,10.90
2023-11-07T21:20:48.145Z,10.90
2023-11-07T21:23:17.939Z,10.80
2023-11-07T21:25:46.954Z,10.90
2023-11-07T21:28:23.517Z,10.90
2023-11-07T21:30:56.063Z,10.90
2023-11-07T21:33:25.652Z,10.90
2023-11-07T21:35:55.735Z,10.90
2023-11-07T21:38:24.915Z,10.90
2023-11-07T21:40:57.221Z,10.90
2023-11-07T21:43:29.251Z,10.90
2023-11-07T21:46:01.666Z,10.90
2023-11-07T21:48:30.859Z,11.00
2023-11-07T21:51:02.025Z,10.90
2023-11-07T21:53:33.794Z,10.60
2023-11-07T21:56:02.659Z,10.90
2023-11-07T21:58:32.802Z,10.80
2023-11-07T22:01:01.374Z,10.90
2023-11-07T22:03:31.101Z,10.80
2023-11-07T22:05:59.868Z,10.90
2023-11-07T22:08:28.571Z,10.90
2023-11-07T22:10:57.474Z,10.80
2023-11-07T22:13:26.131Z,10.90
2023-11-07T22:15:56.252Z,10.70
2023-11-07T22:18:25.325Z,10.90
2023-11-07T22:20:53.925Z,10.90
2023-11-07T22:23:24.224Z,10.90
2023-11-07T22:25:52.684Z,10.90
2023-11-07T22:28:21.162Z,10.90
2023-11-07T22:30:49.696Z,10.90
2023-11-07T22:33:19.792Z,10.90
2023-11-07T22:35:52.817Z,10.90
2023-11-07T22:38:21.808Z,10.90
2023-11-07T22:40:50.890Z,10.90
2023-11-07T22:43:21.083Z,10.90
2023-11-07T22:45:49.648Z,10.90
2023-11-07T22:48:20.368Z,10.90
2023-11-07T22:50:49.069Z,10.20
2023-11-07T22:53:19.677Z,10.90
2023-11-07T22:55:48.761Z,10.90
2023-11-07T22:58:17.298Z,10.90
2023-11-07T23:00:49.944Z,10.90
2023-11-07T23:03:19.680Z,10.80
2023-11-07T23:05:49.782Z,10.80
2023-11-07T23:08:18.382Z,10.80
2023-11-07T23:10:46.844Z,10.80
2023-11-07T23:13:16.319Z,10.80
2023-11-07T23:15:48.584Z,10.90
2023-11-07T23:18:17.244Z,10.80
2023-11-07T23:20:47.499Z,10.80
2023-11-07T23:23:15.925Z,10.80
2023-11-07T23:25:45.334Z,10.80
2023-11-07T23:28:13.950Z,10.80
2023-11-07T23:30:42.755Z,10.80
2023-11-07T23:33:12.387Z,10.80
2023-11-07T23:35:41.282Z,10.80
2023-11-07T23:38:11.437Z,10.80
2023-11-07T23:40:40.666Z,10.80
2023-11-07T23:43:09.022Z,10.90
2023-11-07T23:45:38.801Z,10.80
2023-11-07T23:48:07.432Z,10.90
2023-11-07T23:50:36.000Z,10.80
2023-11-07T23:53:04.370Z,10.80
2023-11-07T23:55:34.259Z,10.80
2023-11-07T23:58:02.669Z,10.80
